Time;durP1;ratioP1;P1;durP2;ratioP2;P2;SDS_P1;SDS_P2;PMS_P1;PMS_P2;Temp;Humidity;BMP_temperature;BMP_pressure;BME280_temperature;BME280_humidity;BME280_pressure;Samples;Min_cycle;Max_cycle;Signal;HPM_P1;HPM_P2
2022/11/02 00:00:55;;;;;;;36.25;13.55;;;7.00;99.90;;;;;;8307706;28;20101;-83
2022/11/02 00:04:56;;;;;;;34.70;12.70;;;7.00;99.90;;;;;;8310701;28;20034;-84
2022/11/02 00:08:56;;;;;;;33.53;11.10;;;6.90;99.90;;;;;;8314888;28;20018;-83
2022/11/02 00:12:57;;;;;;;29.35;11.77;;;6.80;99.90;;;;;;8310517;28;20022;-83
2022/11/02 00:16:57;;;;;;;26.63;11.18;;;6.60;99.90;;;;;;8311892;28;20048;-82
2022/11/02 00:20:58;;;;;;;32.88;11.30;;;6.50;99.90;;;;;;8304361;28;20517;-83
2022/11/02 00:25:03;;;;;;;27.25;10.57;;;6.50;99.90;;;;;;8317961;28;20040;-83
2022/11/02 00:29:04;;;;;;;27.83;10.98;;;6.50;99.90;;;;;;8307906;28;20042;-83
2022/11/02 00:33:05;;;;;;;23.85;10.20;;;6.50;99.90;;;;;;8313536;28;20018;-83
2022/11/02 00:37:05;;;;;;;23.15;9.82;;;6.40;99.90;;;;;;8309153;28;20034;-83
2022/11/02 00:41:06;;;;;;;28.52;10.85;;;6.30;99.90;;;;;;8314420;28;20056;-83
2022/11/02 00:45:07;;;;;;;30.23;11.48;;;6.20;99.90;;;;;;8307381;28;20025;-83
2022/11/02 00:49:08;;;;;;;28.63;12.23;;;6.40;99.90;;;;;;8297263;28;20028;-84
2022/11/02 00:53:08;;;;;;;29.30;10.40;;;6.40;99.90;;;;;;8308631;28;20045;-83
2022/11/02 00:57:09;;;;;;;29.75;11.68;;;6.20;99.90;;;;;;8311161;28;20025;-83
2022/11/02 01:01:09;;;;;;;28.70;11.50;;;6.10;99.90;;;;;;8308094;28;20071;-83
2022/11/02 01:05:11;;;;;;;32.90;10.93;;;6.00;99.90;;;;;;8313777;28;20446;-83
2022/11/02 01:09:13;;;;;;;24.25;10.32;;;6.10;99.90;;;;;;8296915;28;20068;-83
2022/11/02 01:13:14;;;;;;;33.45;12.40;;;6.30;99.90;;;;;;8307169;28;20405;-83
2022/11/02 01:17:15;;;;;;;41.20;13.05;;;6.50;99.90;;;;;;8299777;28;20072;-83
2022/11/02 01:21:16;;;;;;;29.50;11.25;;;6.70;99.90;;;;;;8314661;28;20026;-84
2022/11/02 01:25:16;;;;;;;25.52;10.27;;;6.90;99.90;;;;;;8306840;28;20105;-84
2022/11/02 01:29:17;;;;;;;21.58;9.73;;;6.70;99.90;;;;;;8307069;28;20275;-83
2022/11/02 01:33:18;;;;;;;35.97;12.50;;;6.50;99.90;;;;;;8305708;28;20469;-83
2022/11/02 01:37:18;;;;;;;31.90;10.95;;;6.50;99.90;;;;;;8308742;28;20032;-83
2022/11/02 01:41:19;;;;;;;33.88;11.38;;;6.50;99.90;;;;;;8327981;28;20022;-83
2022/11/02 01:45:20;;;;;;;29.42;10.73;;;6.50;99.90;;;;;;8309923;28;20022;-83
2022/11/02 01:49:21;;;;;;;22.08;9.10;;;6.30;99.90;;;;;;8313824;28;20108;-83
2022/11/02 01:53:22;;;;;;;23.13;9.30;;;6.10;99.90;;;;;;8319221;28;20108;-83
2022/11/02 01:57:24;;;;;;;19.65;9.02;;;5.90;99.90;;;;;;8319277;28;20100;-83
2022/11/02 02:01:25;;;;;;;32.80;11.38;;;5.70;99.90;;;;;;8305757;28;20033;-83
2022/11/02 02:05:26;;;;;;;29.88;11.35;;;5.80;99.90;;;;;;8312959;28;20029;-83
2022/11/02 02:09:28;;;;;;;32.55;11.77;;;5.80;99.90;;;;;;8326259;28;20029;-83
2022/11/02 02:13:29;;;;;;;30.67;12.32;;;5.80;99.90;;;;;;8313944;28;20489;-83
2022/11/02 02:17:48;;;;;;;41.40;12.85;;;5.90;99.90;;;;;;8319888;28;20034;-83
2022/11/02 02:22:12;;;;;;;52.87;12.90;;;6.00;99.90;;;;;;8308463;28;20441;-83
2022/11/02 02:26:34;;;;;;;29.98;11.80;;;5.80;99.90;;;;;;8307793;28;20029;-83
2022/11/02 02:30:45;;;;;;;59.88;13.77;;;5.80;99.90;;;;;;8310893;28;20026;-83
2022/11/02 02:35:02;;;;;;;43.72;13.55;;;5.90;99.90;;;;;;8323852;28;20014;-83
2022/11/02 02:39:11;;;;;;;45.03;13.27;;;5.90;99.90;;;;;;8305362;28;20029;-83
2022/11/02 02:43:19;;;;;;;35.50;12.88;;;5.80;99.90;;;;;;8312041;28;20021;-83
2022/11/02 02:47:23;;;;;;;47.67;14.55;;;5.70;99.90;;;;;;8306709;28;20064;-82
2022/11/02 02:51:32;;;;;;;50.92;15.40;;;5.80;99.90;;;;;;8322335;28;20063;-83
2022/11/02 02:55:40;;;;;;;50.75;16.45;;;5.80;99.90;;;;;;8325815;28;20133;-83
2022/11/02 02:59:47;;;;;;;64.63;18.45;;;5.80;99.90;;;;;;8309618;28;20056;-83
2022/11/02 03:03:47;;;;;;;68.97;21.08;;;6.20;99.90;;;;;;8307704;28;20053;-83
2022/11/02 03:07:48;;;;;;;70.80;20.63;;;6.70;99.90;;;;;;8321649;28;20445;-83
2022/11/02 03:11:55;;;;;;;69.20;19.08;;;6.90;99.90;;;;;;8310527;28;20469;-83
2022/11/02 03:16:10;;;;;;;68.25;19.27;;;7.00;99.90;;;;;;8303836;28;20061;-83
2022/11/02 03:20:22;;;;;;;72.95;20.27;;;6.90;99.90;;;;;;8319419;28;20018;-83
2022/11/02 03:24:52;;;;;;;67.80;20.58;;;7.00;99.90;;;;;;8303385;28;20037;-83
2022/11/02 03:29:11;;;;;;;70.85;20.33;;;7.00;99.90;;;;;;8313466;28;20034;-84
2022/11/02 03:33:32;;;;;;;73.47;21.45;;;7.20;99.90;;;;;;8312788;28;20026;-83
2022/11/02 03:37:51;;;;;;;71.80;22.05;;;7.50;99.90;;;;;;8305810;28;20026;-83
2022/11/02 03:41:54;;;;;;;63.60;19.45;;;7.50;99.90;;;;;;8306118;28;20547;-84
2022/11/02 03:45:57;;;;;;;70.88;20.40;;;7.70;99.90;;;;;;8316226;28;20766;-83
2022/11/02 03:50:01;;;;;;;59.28;18.40;;;7.70;99.90;;;;;;8312531;28;20048;-83
2022/11/02 03:54:12;;;;;;;51.15;16.17;;;7.80;99.90;;;;;;8304793;28;20030;-83
2022/11/02 03:58:12;;;;;;;58.83;17.20;;;7.90;99.90;;;;;;8302534;28;20026;-83
2022/11/02 04:02:14;;;;;;;42.13;13.80;;;7.90;99.90;;;;;;8308006;28;20616;-83
2022/11/02 04:06:15;;;;;;;37.58;12.60;;;8.00;99.90;;;;;;8308604;28;20026;-84
2022/11/02 04:10:16;;;;;;;30.15;11.98;;;8.20;99.90;;;;;;8319446;28;20028;-82
2022/11/02 04:27:14;;;;;;;29.88;12.13;;;8.30;99.90;;;;;;8318750;28;20037;-83
2022/11/02 04:31:15;;;;;;;26.67;11.95;;;8.10;99.90;;;;;;8305392;28;20026;-83
2022/11/02 04:35:15;;;;;;;30.08;12.32;;;7.90;99.90;;;;;;8290724;28;20034;-84
2022/11/02 04:39:16;;;;;;;14.27;7.18;;;7.80;99.90;;;;;;8295462;28;20172;-85
2022/11/02 04:43:16;;;;;;;13.32;7.15;;;7.70;99.90;;;;;;8297558;28;20041;-84
2022/11/02 04:47:17;;;;;;;18.08;7.57;;;7.70;99.90;;;;;;8302896;28;20040;-84
2022/11/02 04:51:20;;;;;;;19.40;7.40;;;7.60;99.90;;;;;;8313364;28;20533;-83
2022/11/02 04:55:20;;;;;;;24.45;7.90;;;7.50;99.90;;;;;;8290856;28;20494;-84
2022/11/02 04:59:21;;;;;;;19.50;8.10;;;7.30;99.90;;;;;;8296284;28;20026;-83
2022/11/02 05:03:21;;;;;;;22.20;8.40;;;7.30;99.90;;;;;;8317986;28;20520;-83
2022/11/02 05:07:22;;;;;;;18.20;7.85;;;7.40;99.90;;;;;;8305740;28;20060;-83
2022/11/02 05:11:23;;;;;;;16.55;7.28;;;7.40;99.90;;;;;;8296272;28;20026;-83
2022/11/02 05:15:26;;;;;;;21.17;7.80;;;7.80;99.90;;;;;;8304588;28;20343;-83
2022/11/02 05:19:27;;;;;;;18.35;6.20;;;8.20;99.90;;;;;;8312476;28;20109;-83
2022/11/02 05:23:28;;;;;;;12.60;6.35;;;8.50;99.90;;;;;;8302718;28;20547;-83
2022/11/02 05:27:29;;;;;;;13.90;6.38;;;9.00;99.90;;;;;;8306431;28;20034;-83
2022/11/02 05:31:29;;;;;;;18.02;6.90;;;9.40;99.90;;;;;;8296502;28;20661;-83
2022/11/02 05:35:30;;;;;;;18.60;6.63;;;9.60;99.90;;;;;;8303383;28;20037;-82
2022/11/02 05:39:30;;;;;;;15.82;6.45;;;9.70;99.90;;;;;;8303474;28;20037;-82
2022/11/02 05:43:31;;;;;;;15.75;6.13;;;9.70;99.90;;;;;;8306468;28;20053;-83
2022/11/02 05:47:33;;;;;;;15.10;6.18;;;9.90;99.90;;;;;;8314227;28;20032;-84
2022/11/02 05:51:33;;;;;;;13.30;6.50;;;9.90;99.90;;;;;;8321928;28;20029;-83
2022/11/02 05:55:34;;;;;;;16.08;6.95;;;9.90;99.90;;;;;;8324048;28;20032;-83
2022/11/02 05:59:35;;;;;;;13.82;5.43;;;9.90;99.90;;;;;;8317227;28;20121;-83
2022/11/02 06:03:35;;;;;;;11.88;6.22;;;10.10;99.90;;;;;;8316645;28;20022;-83
2022/11/02 06:07:36;;;;;;;12.10;6.25;;;10.30;99.90;;;;;;8316592;28;20036;-83
2022/11/02 06:11:37;;;;;;;13.18;6.03;;;10.30;99.90;;;;;;8315666;28;20032;-82
2022/11/02 06:15:37;;;;;;;11.32;6.07;;;10.40;99.90;;;;;;8318906;28;20041;-82
2022/11/02 06:19:38;;;;;;;13.45;6.00;;;10.40;99.90;;;;;;8318615;28;20450;-82
2022/11/02 06:23:38;;;;;;;13.93;5.85;;;10.50;99.90;;;;;;8314844;28;20026;-82
2022/11/02 06:27:40;;;;;;;8.73;5.15;;;10.60;99.90;;;;;;8315840;28;20096;-82
2022/11/02 06:31:41;;;;;;;11.55;5.85;;;10.60;99.90;;;;;;8317826;28;20044;-83
2022/11/02 06:35:46;;;;;;;8.13;4.97;;;10.70;99.90;;;;;;8317483;28;20018;-82
2022/11/02 06:39:46;;;;;;;8.88;5.50;;;10.80;99.90;;;;;;8311574;28;20108;-82
2022/11/02 06:43:47;;;;;;;14.70;5.30;;;10.80;99.90;;;;;;8322658;28;20390;-81
2022/11/02 06:47:48;;;;;;;7.60;4.22;;;10.80;99.90;;;;;;8315638;28;20101;-82
2022/11/02 06:51:51;;;;;;;11.18;4.47;;;10.90;99.90;;;;;;8314656;28;20065;-82
2022/11/02 06:55:56;;;;;;;13.00;4.25;;;10.90;99.90;;;;;;8318967;28;20104;-82
2022/11/02 07:00:02;;;;;;;9.98;3.78;;;11.00;99.90;;;;;;8316580;28;20084;-82
2022/11/02 07:04:03;;;;;;;8.80;3.55;;;10.90;99.90;;;;;;8319455;28;20052;-82
2022/11/02 07:08:04;;;;;;;10.93;3.47;;;11.10;99.90;;;;;;8317690;28;20405;-82
2022/11/02 07:12:05;;;;;;;9.23;3.08;;;11.10;99.90;;;;;;8318678;28;20030;-82
2022/11/02 07:16:06;;;;;;;8.48;3.00;;;11.20;99.90;;;;;;8318263;28;20395;-83
2022/11/02 07:20:09;;;;;;;10.63;2.90;;;11.20;99.90;;;;;;8319040;28;20029;-82
2022/11/02 07:24:10;;;;;;;10.57;2.60;;;11.20;99.90;;;;;;8322964;28;20018;-82
2022/11/02 07:28:10;;;;;;;12.85;3.15;;;11.30;99.90;;;;;;8318858;28;20497;-82
2022/11/02 07:32:11;;;;;;;9.88;2.78;;;11.50;99.90;;;;;;8318178;28;20025;-82
2022/11/02 07:36:12;;;;;;;8.40;2.30;;;11.60;99.90;;;;;;8316041;28;20026;-82
2022/11/02 07:40:13;;;;;;;7.38;2.20;;;11.80;99.90;;;;;;8310622;28;20040;-82
2022/11/02 07:44:13;;;;;;;7.82;2.30;;;11.80;99.90;;;;;;8313351;28;20026;-81
2022/11/02 07:48:14;;;;;;;8.02;2.28;;;11.80;99.90;;;;;;8311738;28;20412;-82
2022/11/02 07:52:14;;;;;;;9.77;2.47;;;11.90;99.90;;;;;;8312100;28;20025;-82
2022/11/02 07:56:15;;;;;;;10.98;2.20;;;12.10;99.90;;;;;;8315840;28;20045;-82
2022/11/02 08:00:16;;;;;;;6.57;2.13;;;12.30;99.90;;;;;;8319888;28;20077;-82
2022/11/02 08:04:16;;;;;;;6.47;2.28;;;12.60;99.90;;;;;;8314725;28;20021;-81
2022/11/02 08:08:19;;;;;;;7.65;2.00;;;12.80;99.90;;;;;;8313619;28;20041;-83
2022/11/02 08:12:19;;;;;;;7.53;1.90;;;13.00;99.90;;;;;;8316970;28;20117;-81
2022/11/02 08:16:20;;;;;;;8.57;2.40;;;13.00;99.90;;;;;;8312880;28;20018;-82
2022/11/02 08:20:21;;;;;;;7.32;2.20;;;13.00;99.90;;;;;;8314388;28;20452;-82
2022/11/02 08:24:21;;;;;;;9.40;1.92;;;13.10;99.90;;;;;;8313870;28;20028;-82
2022/11/02 08:28:25;;;;;;;8.85;2.15;;;13.10;99.90;;;;;;8312099;28;20587;-82
2022/11/02 08:32:26;;;;;;;10.20;2.88;;;13.10;99.90;;;;;;8314488;28;20033;-82
2022/11/02 08:36:26;;;;;;;7.32;2.33;;;13.40;99.90;;;;;;8315776;28;20097;-82
2022/11/02 08:40:27;;;;;;;5.65;1.75;;;13.50;99.90;;;;;;8316411;28;20525;-81
2022/11/02 08:44:27;;;;;;;7.43;1.67;;;13.60;99.90;;;;;;8310081;28;20027;-82
2022/11/02 08:48:28;;;;;;;8.80;1.80;;;13.70;99.90;;;;;;8312981;28;20096;-82
2022/11/02 08:52:34;;;;;;;7.45;1.73;;;13.90;99.90;;;;;;8310967;28;20066;-83
2022/11/02 08:56:35;;;;;;;5.00;1.58;;;14.30;99.90;;;;;;8313451;28;20021;-82
2022/11/02 09:00:35;;;;;;;5.13;1.73;;;14.90;99.90;;;;;;8315153;28;20124;-82
2022/11/02 09:04:36;;;;;;;9.48;2.05;;;15.30;99.90;;;;;;8314773;28;20042;-82
2022/11/02 09:08:36;;;;;;;7.20;1.75;;;15.50;99.90;;;;;;8307851;28;20490;-81
2022/11/02 09:12:37;;;;;;;7.15;1.60;;;15.10;99.90;;;;;;8310901;28;20052;-82
2022/11/02 09:16:37;;;;;;;6.03;1.45;;;15.30;99.90;;;;;;8316017;28;20497;-81
2022/11/02 09:20:38;;;;;;;10.50;4.78;;;15.20;99.90;;;;;;8314676;28;20100;-82
2022/11/02 09:24:39;;;;;;;8.43;1.92;;;15.10;99.90;;;;;;8313191;28;20037;-82
2022/11/02 09:28:39;;;;;;;6.45;1.95;;;15.40;99.90;;;;;;8317814;28;20081;-82
2022/11/02 09:32:40;;;;;;;11.43;1.70;;;15.60;99.90;;;;;;8310696;28;20436;-82
2022/11/02 09:36:41;;;;;;;10.23;2.00;;;16.10;99.90;;;;;;8313799;28;20017;-82
2022/11/02 09:41:05;;;;;;;6.63;2.03;;;16.60;99.90;;;;;;8314565;28;20089;-82
2022/11/02 09:45:10;;;;;;;7.32;1.40;;;17.00;99.90;;;;;;8308069;28;20038;-82
2022/11/02 09:49:24;;;;;;;8.82;1.80;;;17.00;99.90;;;;;;8314030;28;20021;-81
2022/11/02 09:54:04;;;;;;;6.75;1.70;;;16.70;99.90;;;;;;8316939;28;20034;-82
2022/11/02 09:58:11;;;;;;;6.45;1.80;;;16.10;99.90;;;;;;8296066;28;20088;-82
2022/11/02 10:02:21;;;;;;;6.47;1.73;;;16.00;99.90;;;;;;8328769;28;20085;-83
2022/11/02 10:06:24;;;;;;;7.97;1.50;;;16.10;99.90;;;;;;8323985;28;20072;-82
2022/11/02 10:10:52;;;;;;;6.13;1.50;;;16.10;99.90;;;;;;8320184;28;20192;-82
2022/11/02 10:15:28;;;;;;;9.82;1.67;;;16.10;99.90;;;;;;8315498;28;20025;-82
2022/11/02 10:19:40;;;;;;;6.38;1.70;;;15.90;99.90;;;;;;8316018;28;20485;-82
2022/11/02 10:23:51;;;;;;;4.85;1.67;;;15.80;99.90;;;;;;8314764;28;20048;-82
2022/11/02 10:28:03;;;;;;;5.55;1.17;;;15.80;99.90;;;;;;8314776;28;20045;-82
2022/11/02 10:32:04;;;;;;;5.50;1.65;;;15.90;99.90;;;;;;8316918;28;20085;-82
2022/11/02 10:36:07;;;;;;;4.35;1.33;;;16.10;99.90;;;;;;8316042;28;20022;-82
2022/11/02 10:40:16;;;;;;;5.43;1.35;;;16.20;99.90;;;;;;8312597;28;20021;-82
2022/11/02 10:45:02;;;;;;;6.07;1.55;;;16.00;99.90;;;;;;8317150;28;20014;-81
2022/11/02 10:49:31;;;;;;;3.83;1.65;;;16.00;99.90;;;;;;8313243;28;20046;-82
2022/11/02 10:53:44;;;;;;;9.95;2.20;;;15.80;99.90;;;;;;8316090;28;20047;-82
2022/11/02 10:57:44;;;;;;;6.63;1.67;;;15.50;99.90;;;;;;8318110;28;20026;-82
2022/11/02 11:02:01;;;;;;;8.63;1.73;;;15.40;99.90;;;;;;8316209;28;20401;-82
2022/11/02 11:06:03;;;;;;;5.90;1.27;;;15.60;99.90;;;;;;8316275;28;20026;-81
2022/11/02 11:10:04;;;;;;;5.57;1.40;;;15.70;99.90;;;;;;8314081;28;20030;-82
2022/11/02 11:14:17;;;;;;;6.10;1.63;;;15.50;99.90;;;;;;8313052;28;20083;-80
2022/11/02 11:18:20;;;;;;;6.50;1.65;;;15.40;99.90;;;;;;8312519;28;20028;-81
2022/11/02 11:22:40;;;;;;;5.32;1.38;;;15.50;99.90;;;;;;8317572;28;20025;-82
2022/11/02 11:26:40;;;;;;;6.22;1.30;;;15.50;99.90;;;;;;8311792;28;20049;-82
2022/11/02 11:30:41;;;;;;;7.97;1.30;;;15.60;99.90;;;;;;8312736;28;20021;-81
2022/11/02 11:34:44;;;;;;;7.57;1.77;;;15.50;99.90;;;;;;8313656;28;20022;-81
2022/11/02 11:38:48;;;;;;;6.97;2.00;;;15.70;99.90;;;;;;8311482;28;20021;-82
2022/11/02 11:42:51;;;;;;;4.22;1.50;;;15.90;99.90;;;;;;8308844;28;20097;-81
2022/11/02 11:46:57;;;;;;;8.93;1.50;;;16.00;99.90;;;;;;8311851;28;20497;-80
2022/11/02 11:50:59;;;;;;;5.63;1.63;;;16.20;99.90;;;;;;8315507;28;20370;-80
2022/11/02 11:55:18;;;;;;;8.82;1.75;;;16.20;99.90;;;;;;8306212;28;20045;-81
2022/11/02 11:59:25;;;;;;;5.45;1.60;;;15.80;99.90;;;;;;8311454;28;20017;-81
2022/11/02 12:03:25;;;;;;;6.05;1.63;;;15.80;99.90;;;;;;8308012;28;20021;-81
2022/11/02 12:07:45;;;;;;;7.43;2.10;;;15.80;99.90;;;;;;8314119;28;20032;-81
2022/11/02 12:11:51;;;;;;;6.95;1.75;;;15.80;99.90;;;;;;8310572;28;20076;-81
2022/11/02 12:16:02;;;;;;;6.05;1.75;;;15.90;99.90;;;;;;8306036;28;20065;-81
2022/11/02 12:20:18;;;;;;;;;;;15.90;99.90;;;;;;8311538;28;20530;-81
2022/11/02 12:24:46;;;;;;;6.55;1.63;;;15.90;99.90;;;;;;8309419;28;19905;-82
2022/11/02 12:29:05;;;;;;;7.70;2.10;;;15.80;99.90;;;;;;8309057;28;20029;-80
2022/11/02 12:33:23;;;;;;;3.90;1.40;;;16.00;99.90;;;;;;8309981;28;20029;-80
2022/11/02 12:37:33;;;;;;;6.70;1.63;;;16.10;99.90;;;;;;8306214;28;20029;-81
2022/11/02 12:41:57;;;;;;;6.38;1.83;;;16.00;99.90;;;;;;8309530;28;20473;-81
2022/11/02 12:46:04;;;;;;;6.30;1.30;;;16.00;99.90;;;;;;8275565;28;20036;-80
2022/11/02 12:50:43;;;;;;;6.43;1.52;;;16.00;99.90;;;;;;8305960;28;20520;-80
2022/11/02 12:54:55;;;;;;;4.75;1.73;;;15.90;99.90;;;;;;8312477;28;20018;-80
2022/11/02 12:58:55;;;;;;;7.97;1.98;;;16.00;99.90;;;;;;8309035;28;20080;-80
2022/11/02 13:03:25;;;;;;;4.68;1.38;;;16.10;99.90;;;;;;8322615;28;20025;-80
2022/11/02 13:07:35;;;;;;;4.88;1.30;;;16.30;99.90;;;;;;8307154;28;20519;-80
2022/11/02 13:11:49;;;;;;;6.57;1.63;;;16.50;99.90;;;;;;8320420;28;20621;-80
2022/11/02 13:15:51;;;;;;;6.55;1.52;;;16.30;99.90;;;;;;8301655;28;20053;-80
2022/11/02 13:19:59;;;;;;;3.83;1.50;;;15.90;99.90;;;;;;8320715;28;20022;-80
2022/11/02 13:23:59;;;;;;;8.18;1.42;;;15.90;99.90;;;;;;8303862;28;20474;-81
2022/11/02 13:28:10;;;;;;;6.50;1.50;;;15.60;99.90;;;;;;8308010;28;20042;-81
2022/11/02 13:32:34;;;;;;;5.07;1.55;;;15.80;99.90;;;;;;8307440;28;20034;-81
2022/11/02 13:36:39;;;;;;;7.85;1.45;;;15.70;99.90;;;;;;8316274;28;20044;-80
2022/11/02 13:40:49;;;;;;;5.85;1.55;;;15.30;99.90;;;;;;8315116;28;20048;-81
2022/11/02 13:45:07;;;;;;;6.73;1.73;;;15.00;99.90;;;;;;8314179;28;20505;-80
2022/11/02 13:49:38;;;;;;;5.53;1.67;;;14.70;99.90;;;;;;8323491;28;20280;-81
2022/11/02 13:53:42;;;;;;;8.73;1.65;;;14.40;99.90;;;;;;8315848;28;20033;-81
2022/11/02 13:57:48;;;;;;;9.45;1.60;;;14.30;99.90;;;;;;8327741;28;20612;-82
2022/11/02 14:01:52;;;;;;;6.75;1.50;;;14.30;99.90;;;;;;8315903;28;20033;-80
2022/11/02 14:06:08;;;;;;;7.38;1.55;;;14.20;99.90;;;;;;8308302;28;20022;-80
2022/11/02 14:10:17;;;;;;;6.25;1.50;;;14.20;99.90;;;;;;8316591;28;20112;-81
2022/11/02 14:14:23;;;;;;;4.10;1.50;;;14.20;99.90;;;;;;8316521;28;20021;-81
2022/11/02 14:18:29;;;;;;;6.72;1.65;;;14.20;99.90;;;;;;8314366;28;20029;-80
2022/11/02 14:22:30;;;;;;;6.70;1.63;;;14.10;99.90;;;;;;8317249;28;20029;-80
2022/11/02 14:26:32;;;;;;;5.72;1.40;;;13.90;99.90;;;;;;8316904;28;20507;-80
2022/11/02 14:30:42;;;;;;;4.15;1.55;;;13.60;99.90;;;;;;8314695;28;20465;-81
2022/11/02 14:35:25;;;;;;;6.20;1.60;;;13.50;99.90;;;;;;8311492;28;20022;-80
2022/11/02 14:39:43;;;;;;;3.10;1.50;;;13.30;99.90;;;;;;8323815;28;20032;-81
2022/11/02 14:44:12;;;;;;;6.55;2.05;;;13.30;99.90;;;;;;8309182;28;20029;-81
2022/11/02 14:48:17;;;;;;;7.22;1.58;;;13.10;99.90;;;;;;8317113;28;20394;-80
2022/11/02 14:52:30;;;;;;;4.78;1.95;;;13.00;99.90;;;;;;8319771;28;20041;-80
2022/11/02 14:56:48;;;;;;;8.73;1.95;;;12.80;99.90;;;;;;8311231;28;20137;-81
2022/11/02 15:00:48;;;;;;;7.13;1.80;;;12.60;99.90;;;;;;8312863;28;20022;-81
2022/11/02 15:04:55;;;;;;;6.72;2.00;;;12.60;99.90;;;;;;8312520;28;20486;-80
2022/11/02 15:09:02;;;;;;;5.20;1.52;;;12.30;99.90;;;;;;8311921;28;20026;-82
2022/11/02 15:13:45;;;;;;;8.18;2.05;;;12.20;99.90;;;;;;8321676;28;20030;-81
2022/11/02 15:17:46;;;;;;;10.10;2.03;;;11.90;99.90;;;;;;8313517;28;20045;-81
2022/11/02 15:21:48;;;;;;;3.65;1.75;;;11.70;99.90;;;;;;8307957;28;20454;-81
2022/11/02 15:25:51;;;;;;;7.20;2.05;;;11.60;99.90;;;;;;8311914;28;20029;-82
2022/11/02 15:29:52;;;;;;;6.68;2.05;;;11.60;99.90;;;;;;8315228;28;20022;-81
2022/11/02 15:33:57;;;;;;;5.38;1.67;;;11.40;99.90;;;;;;8316733;28;20022;-81
2022/11/02 15:37:59;;;;;;;5.18;1.60;;;11.20;99.90;;;;;;8320647;28;20019;-81
2022/11/02 15:42:13;;;;;;;4.68;1.50;;;11.00;99.90;;;;;;8318332;28;20030;-81
2022/11/02 15:46:43;;;;;;;5.35;1.70;;;10.70;99.90;;;;;;8320262;28;20045;-81
2022/11/02 15:50:47;;;;;;;8.05;1.60;;;10.60;99.90;;;;;;8300772;28;20061;-81
2022/11/02 15:55:15;;;;;;;12.25;1.63;;;10.50;99.90;;;;;;8307936;28;20014;-81
2022/11/02 15:59:36;;;;;;;7.65;2.28;;;10.20;99.90;;;;;;8315614;28;20025;-81
2022/11/02 16:03:36;;;;;;;9.70;2.15;;;10.10;99.90;;;;;;8312794;28;20147;-80
2022/11/02 16:07:41;;;;;;;5.97;1.90;;;10.10;99.90;;;;;;8324410;28;20087;-81
2022/11/02 16:11:42;;;;;;;6.20;2.15;;;9.80;99.90;;;;;;8322263;28;20105;-82
2022/11/02 16:15:43;;;;;;;5.93;1.75;;;9.60;99.90;;;;;;8338834;28;20033;-79
2022/11/02 16:19:44;;;;;;;11.18;4.43;;;9.30;99.90;;;;;;8309981;28;20568;-80
2022/11/02 16:23:48;;;;;;;15.50;5.40;;;9.20;99.90;;;;;;8315740;28;20014;-81
2022/11/02 16:27:48;;;;;;;9.18;4.38;;;9.00;99.90;;;;;;8305729;28;20079;-81
2022/11/02 16:31:50;;;;;;;8.88;3.53;;;9.00;99.90;;;;;;8309961;28;20018;-80
2022/11/02 16:35:52;;;;;;;8.68;3.20;;;9.30;99.90;;;;;;8310394;28;20029;-79
2022/11/02 16:39:52;;;;;;;14.90;7.55;;;8.90;99.90;;;;;;8310937;28;20486;-81
2022/11/02 16:43:54;;;;;;;16.27;3.53;;;8.50;99.90;;;;;;8315493;28;20025;-81
2022/11/02 16:47:55;;;;;;;17.35;5.57;;;8.40;99.90;;;;;;8314157;28;20026;-80
2022/11/02 16:51:56;;;;;;;9.40;3.35;;;8.30;99.90;;;;;;8316694;28;20026;-80
2022/11/02 16:56:13;;;;;;;10.25;3.03;;;8.10;99.90;;;;;;8318660;28;20033;-81
2022/11/02 17:00:19;;;;;;;10.13;3.08;;;7.90;99.90;;;;;;8316507;28;20021;-80
2022/11/02 17:04:25;;;;;;;10.85;2.92;;;8.00;99.90;;;;;;8316476;28;20444;-81
2022/11/02 17:12:35;;;;;;;15.20;8.50;;;7.80;99.90;;;;;;8298069;28;20054;-83
2022/11/02 17:16:56;;;;;;;20.95;6.80;;;7.70;99.90;;;;;;8299020;28;20014;-83
2022/11/02 17:21:12;;;;;;;16.45;8.10;;;7.60;99.90;;;;;;8282611;28;20479;-84
2022/11/02 17:25:19;;;;;;;32.08;14.73;;;7.40;99.90;;;;;;8273116;28;20026;-83
2022/11/02 17:29:25;;;;;;;24.35;10.77;;;7.60;99.90;;;;;;8280693;28;20050;-83
2022/11/02 17:33:31;;;;;;;18.33;10.15;;;7.50;99.90;;;;;;8284814;28;20104;-83
2022/11/02 17:37:32;;;;;;;13.75;7.45;;;7.50;99.90;;;;;;8278252;28;20029;-83
2022/11/02 17:45:57;;;;;;;17.92;7.13;;;7.10;99.90;;;;;;8290670;28;20411;-83
2022/11/02 17:49:57;;;;;;;15.65;6.47;;;7.00;99.90;;;;;;8282340;28;20022;-83
2022/11/02 17:53:58;;;;;;;19.13;6.28;;;7.10;99.90;;;;;;8285608;28;20030;-83
2022/11/02 17:57:59;;;;;;;13.68;6.50;;;6.80;99.90;;;;;;8285259;28;20034;-83
2022/11/02 18:02:00;;;;;;;14.05;7.90;;;6.50;99.90;;;;;;8282438;28;20050;-83
2022/11/02 18:06:00;;;;;;;15.60;7.03;;;6.80;99.90;;;;;;8287723;28;20030;-83
2022/11/02 18:10:01;;;;;;;19.15;6.78;;;6.90;99.90;;;;;;8280192;28;20437;-83
2022/11/02 18:14:02;;;;;;;14.55;6.20;;;6.70;99.90;;;;;;8276141;28;20053;-83
2022/11/02 18:18:02;;;;;;;16.75;6.68;;;6.70;99.90;;;;;;8280485;28;20033;-84
2022/11/02 18:22:03;;;;;;;21.40;7.95;;;6.70;99.90;;;;;;8282534;28;20027;-83
2022/11/02 18:26:03;;;;;;;17.70;7.55;;;6.80;99.90;;;;;;8286072;28;20201;-83
2022/11/02 18:30:06;;;;;;;16.45;5.80;;;6.50;99.90;;;;;;8275677;28;20029;-83
2022/11/02 18:34:08;;;;;;;14.80;6.72;;;6.30;99.90;;;;;;8278387;28;20034;-83
2022/11/02 18:38:09;;;;;;;13.75;7.55;;;6.10;99.90;;;;;;8276646;28;20030;-83
2022/11/02 18:42:10;;;;;;;17.48;6.72;;;5.90;99.90;;;;;;8280126;28;20037;-83
2022/11/02 18:46:10;;;;;;;14.48;6.38;;;5.70;99.90;;;;;;8273466;28;20409;-83
2022/11/02 18:50:12;;;;;;;11.68;6.05;;;5.70;99.90;;;;;;8274080;28;20018;-83
2022/11/02 18:54:13;;;;;;;19.98;9.70;;;5.60;99.90;;;;;;8271789;28;20054;-83
2022/11/02 18:58:14;;;;;;;15.52;7.68;;;5.50;99.90;;;;;;8280550;28;20029;-83
2022/11/02 19:02:15;;;;;;;20.25;9.77;;;5.40;99.90;;;;;;8286719;28;20109;-83
2022/11/02 19:10:35;;;;;;;11.45;6.88;;;5.40;99.90;;;;;;8292255;28;20041;-83
2022/11/02 19:14:38;;;;;;;12.68;7.63;;;5.30;99.90;;;;;;8289134;28;20058;-83
2022/11/02 19:18:39;;;;;;;18.55;9.48;;;5.20;99.90;;;;;;8282984;28;20109;-83
2022/11/02 19:22:39;;;;;;;21.48;9.90;;;5.10;99.90;;;;;;8282636;28;20045;-84
2022/11/02 19:26:40;;;;;;;21.23;11.63;;;5.10;99.90;;;;;;8281665;28;20652;-83
2022/11/02 19:30:40;;;;;;;19.38;10.43;;;5.00;99.90;;;;;;8289809;28;20030;-84
2022/11/02 19:34:41;;;;;;;21.55;12.82;;;5.00;99.90;;;;;;8278291;28;20036;-84
2022/11/02 19:38:42;;;;;;;12.93;7.40;;;4.90;99.90;;;;;;8293880;28;20105;-84
2022/11/02 19:42:42;;;;;;;18.83;9.82;;;4.80;99.90;;;;;;8281940;28;20089;-84
2022/11/02 19:46:43;;;;;;;22.27;10.63;;;4.90;99.90;;;;;;8282809;28;20026;-83
2022/11/02 19:50:43;;;;;;;17.23;9.60;;;4.80;99.90;;;;;;8280873;28;20029;-84
2022/11/02 19:54:44;;;;;;;56.88;32.80;;;4.90;99.90;;;;;;8281033;28;20022;-84
2022/11/02 19:58:46;;;;;;;43.20;24.58;;;4.80;99.90;;;;;;8287493;28;20018;-84
2022/11/02 20:02:49;;;;;;;29.33;14.90;;;4.70;99.90;;;;;;8276910;28;20025;-84
2022/11/02 20:06:49;;;;;;;28.90;14.75;;;4.60;99.90;;;;;;8287508;28;20470;-83
2022/11/02 20:10:50;;;;;;;17.85;11.88;;;4.60;99.90;;;;;;8275311;28;20029;-84
2022/11/02 20:14:50;;;;;;;32.53;17.73;;;4.80;99.90;;;;;;8278081;28;20433;-84
2022/11/02 20:18:52;;;;;;;28.60;16.27;;;4.70;99.90;;;;;;8278352;28;20057;-83
2022/11/02 20:22:53;;;;;;;25.55;12.27;;;4.60;99.90;;;;;;8287373;28;20026;-83
2022/11/02 20:27:00;;;;;;;20.65;10.63;;;4.60;99.90;;;;;;8293378;28;20011;-83
2022/11/02 20:31:06;;;;;;;20.40;9.98;;;4.60;99.90;;;;;;8300543;28;20022;-83
2022/11/02 20:35:08;;;;;;;23.77;13.05;;;4.50;99.90;;;;;;8274462;28;20026;-84
2022/11/02 20:39:09;;;;;;;13.65;7.80;;;4.50;99.90;;;;;;8279974;28;20034;-83
2022/11/02 20:43:10;;;;;;;23.27;11.50;;;4.80;99.90;;;;;;8280143;28;20022;-83
2022/11/02 20:47:10;;;;;;;11.05;6.30;;;4.80;99.90;;;;;;8277111;28;20081;-83
2022/11/02 20:51:12;;;;;;;16.38;6.40;;;5.00;99.90;;;;;;8285341;28;20026;-83
2022/11/02 20:55:12;;;;;;;15.68;8.10;;;4.90;99.90;;;;;;8277675;28;20504;-83
2022/11/02 20:59:13;;;;;;;27.52;13.38;;;4.70;99.90;;;;;;8275843;28;20030;-84
2022/11/02 21:03:15;;;;;;;25.13;11.30;;;4.50;99.90;;;;;;8286992;28;20092;-83
2022/11/02 21:07:15;;;;;;;24.30;10.30;;;4.30;99.90;;;;;;8295377;28;20041;-83
2022/11/02 21:15:35;;;;;;;27.30;12.95;;;4.00;99.90;;;;;;8284945;28;20081;-83
2022/11/02 21:19:36;;;;;;;27.65;11.05;;;4.00;99.90;;;;;;8281832;28;20026;-83
2022/11/02 21:23:37;;;;;;;16.80;9.70;;;4.10;99.90;;;;;;8285231;28;20474;-83
2022/11/02 21:27:37;;;;;;;24.30;9.23;;;4.30;99.90;;;;;;8273246;28;20026;-83
2022/11/02 21:31:38;;;;;;;15.50;9.38;;;4.20;99.90;;;;;;8282320;28;20461;-83
2022/11/02 21:35:38;;;;;;;21.40;10.20;;;4.20;99.90;;;;;;8288436;28;20053;-83
2022/11/02 21:39:39;;;;;;;18.90;9.13;;;4.10;99.90;;;;;;8277402;28;20050;-84